sensor_id;sensor_type;location;lat;lon;timestamp;temperature;humidity
52656;SHT85;35474;51.032;6.998;2023-05-09T00:00:35;15.27;89.42
52656;SHT85;35474;51.032;6.998;2023-05-09T00:03:03;15.27;89.52
52656;SHT85;35474;51.032;6.998;2023-05-09T00:05:31;15.24;89.56
52656;SHT85;35474;51.032;6.998;2023-05-09T00:07:57;15.24;89.58
52656;SHT85;35474;51.032;6.998;2023-05-09T00:10:25;15.22;89.62
52656;SHT85;35474;51.032;6.998;2023-05-09T00:12:52;15.15;89.72
52656;SHT85;35474;51.032;6.998;2023-05-09T00:15:19;15.18;89.91
52656;SHT85;35474;51.032;6.998;2023-05-09T00:17:45;15.12;89.98
52656;SHT85;35474;51.032;6.998;2023-05-09T00:20:12;15.08;89.99
52656;SHT85;35474;51.032;6.998;2023-05-09T00:22:39;15.08;90.21
52656;SHT85;35474;51.032;6.998;2023-05-09T00:25:09;15.07;90.25
52656;SHT85;35474;51.032;6.998;2023-05-09T00:27:36;15.00;90.40
52656;SHT85;35474;51.032;6.998;2023-05-09T00:30:07;15.04;90.42
52656;SHT85;35474;51.032;6.998;2023-05-09T00:32:33;15.00;90.46
52656;SHT85;35474;51.032;6.998;2023-05-09T00:35:00;15.04;90.60
52656;SHT85;35474;51.032;6.998;2023-05-09T00:37:28;15.01;90.49
52656;SHT85;35474;51.032;6.998;2023-05-09T00:39:55;15.08;90.44
52656;SHT85;35474;51.032;6.998;2023-05-09T00:42:22;15.25;90.07
52656;SHT85;35474;51.032;6.998;2023-05-09T00:44:48;15.11;90.16
52656;SHT85;35474;51.032;6.998;2023-05-09T00:47:15;15.10;90.23
52656;SHT85;35474;51.032;6.998;2023-05-09T00:49:42;15.07;90.20
52656;SHT85;35474;51.032;6.998;2023-05-09T00:52:08;15.01;90.29
52656;SHT85;35474;51.032;6.998;2023-05-09T00:54:35;15.03;90.39
52656;SHT85;35474;51.032;6.998;2023-05-09T00:57:01;15.12;90.47
52656;SHT85;35474;51.032;6.998;2023-05-09T00:59:28;15.03;90.49
52656;SHT85;35474;51.032;6.998;2023-05-09T01:01:55;15.00;90.51
52656;SHT85;35474;51.032;6.998;2023-05-09T01:04:22;14.93;90.80
52656;SHT85;35474;51.032;6.998;2023-05-09T01:07:02;14.91;90.96
52656;SHT85;35474;51.032;6.998;2023-05-09T01:09:41;14.91;90.95
52656;SHT85;35474;51.032;6.998;2023-05-09T01:23:15;15.01;90.79
52656;SHT85;35474;51.032;6.998;2023-05-09T01:31:20;15.03;90.77
52656;SHT85;35474;51.032;6.998;2023-05-09T01:33:50;15.01;90.71
52656;SHT85;35474;51.032;6.998;2023-05-09T01:36:21;15.03;90.48
52656;SHT85;35474;51.032;6.998;2023-05-09T01:38:54;15.10;90.44
52656;SHT85;35474;51.032;6.998;2023-05-09T01:41:23;15.08;90.52
52656;SHT85;35474;51.032;6.998;2023-05-09T01:43:55;15.05;90.66
52656;SHT85;35474;51.032;6.998;2023-05-09T01:46:26;15.03;90.66
52656;SHT85;35474;51.032;6.998;2023-05-09T01:48:54;15.18;90.31
52656;SHT85;35474;51.032;6.998;2023-05-09T01:51:23;15.15;90.40
52656;SHT85;35474;51.032;6.998;2023-05-09T01:53:51;15.15;90.44
52656;SHT85;35474;51.032;6.998;2023-05-09T01:56:22;15.17;90.21
52656;SHT85;35474;51.032;6.998;2023-05-09T01:58:49;15.17;90.20
52656;SHT85;35474;51.032;6.998;2023-05-09T02:01:18;15.20;90.23
52656;SHT85;35474;51.032;6.998;2023-05-09T02:03:46;15.18;90.04
52656;SHT85;35474;51.032;6.998;2023-05-09T02:06:15;15.18;90.07
52656;SHT85;35474;51.032;6.998;2023-05-09T02:08:43;15.22;89.97
52656;SHT85;35474;51.032;6.998;2023-05-09T02:11:10;15.25;89.92
52656;SHT85;35474;51.032;6.998;2023-05-09T02:13:37;15.20;89.84
52656;SHT85;35474;51.032;6.998;2023-05-09T02:16:05;15.22;89.74
52656;SHT85;35474;51.032;6.998;2023-05-09T02:18:33;15.27;89.76
52656;SHT85;35474;51.032;6.998;2023-05-09T02:21:00;15.30;89.53
52656;SHT85;35474;51.032;6.998;2023-05-09T02:23:28;15.32;89.48
52656;SHT85;35474;51.032;6.998;2023-05-09T02:25:55;15.35;89.26
52656;SHT85;35474;51.032;6.998;2023-05-09T02:28:22;15.32;89.35
52656;SHT85;35474;51.032;6.998;2023-05-09T02:30:52;15.27;89.29
52656;SHT85;35474;51.032;6.998;2023-05-09T02:33:20;15.25;89.36
52656;SHT85;35474;51.032;6.998;2023-05-09T02:35:47;15.22;89.57
52656;SHT85;35474;51.032;6.998;2023-05-09T02:38:15;15.31;89.40
52656;SHT85;35474;51.032;6.998;2023-05-09T02:40:42;15.25;89.39
52656;SHT85;35474;51.032;6.998;2023-05-09T02:43:09;15.21;89.32
52656;SHT85;35474;51.032;6.998;2023-05-09T02:45:36;15.24;89.23
52656;SHT85;35474;51.032;6.998;2023-05-09T02:48:03;15.25;89.15
52656;SHT85;35474;51.032;6.998;2023-05-09T02:50:34;15.28;89.13
52656;SHT85;35474;51.032;6.998;2023-05-09T02:53:04;15.21;89.24
52656;SHT85;35474;51.032;6.998;2023-05-09T02:55:31;15.21;89.19
52656;SHT85;35474;51.032;6.998;2023-05-09T02:57:58;15.24;89.26
52656;SHT85;35474;51.032;6.998;2023-05-09T03:00:39;15.17;89.19
52656;SHT85;35474;51.032;6.998;2023-05-09T03:03:05;15.21;89.17
52656;SHT85;35474;51.032;6.998;2023-05-09T03:05:32;15.21;89.18
52656;SHT85;35474;51.032;6.998;2023-05-09T03:07:59;15.20;89.19
52656;SHT85;35474;51.032;6.998;2023-05-09T03:10:25;15.18;89.17
52656;SHT85;35474;51.032;6.998;2023-05-09T03:12:52;15.22;89.10
52656;SHT85;35474;51.032;6.998;2023-05-09T03:15:19;15.17;89.19
52656;SHT85;35474;51.032;6.998;2023-05-09T03:17:46;15.15;89.20
52656;SHT85;35474;51.032;6.998;2023-05-09T03:20:13;15.24;88.92
52656;SHT85;35474;51.032;6.998;2023-05-09T03:22:41;15.28;88.77
52656;SHT85;35474;51.032;6.998;2023-05-09T03:25:07;15.27;88.81
52656;SHT85;35474;51.032;6.998;2023-05-09T03:27:34;15.21;88.69
52656;SHT85;35474;51.032;6.998;2023-05-09T03:30:01;15.30;88.91
52656;SHT85;35474;51.032;6.998;2023-05-09T03:32:28;15.14;89.05
52656;SHT85;35474;51.032;6.998;2023-05-09T03:34:54;15.18;89.24
52656;SHT85;35474;51.032;6.998;2023-05-09T03:37:22;15.15;89.16
52656;SHT85;35474;51.032;6.998;2023-05-09T03:39:52;15.22;89.11
52656;SHT85;35474;51.032;6.998;2023-05-09T03:42:18;15.18;89.21
52656;SHT85;35474;51.032;6.998;2023-05-09T03:44:45;15.14;89.27
52656;SHT85;35474;51.032;6.998;2023-05-09T03:47:11;15.18;89.19
52656;SHT85;35474;51.032;6.998;2023-05-09T03:49:38;15.18;89.20
52656;SHT85;35474;51.032;6.998;2023-05-09T03:52:04;15.30;89.03
52656;SHT85;35474;51.032;6.998;2023-05-09T03:54:31;15.41;88.41
52656;SHT85;35474;51.032;6.998;2023-05-09T03:56:57;15.35;88.59
52656;SHT85;35474;51.032;6.998;2023-05-09T03:59:24;15.28;88.48
52656;SHT85;35474;51.032;6.998;2023-05-09T04:01:51;15.31;88.62
52656;SHT85;35474;51.032;6.998;2023-05-09T04:04:19;15.32;88.63
52656;SHT85;35474;51.032;6.998;2023-05-09T04:06:46;15.21;88.86
52656;SHT85;35474;51.032;6.998;2023-05-09T04:09:13;15.25;88.82
52656;SHT85;35474;51.032;6.998;2023-05-09T04:11:40;15.30;88.74
52656;SHT85;35474;51.032;6.998;2023-05-09T04:14:06;15.25;88.79
52656;SHT85;35474;51.032;6.998;2023-05-09T04:16:33;15.36;88.53
52656;SHT85;35474;51.032;6.998;2023-05-09T04:18:59;15.36;88.44
52656;SHT85;35474;51.032;6.998;2023-05-09T04:21:26;15.36;88.41
52656;SHT85;35474;51.032;6.998;2023-05-09T04:23:53;15.48;88.32
52656;SHT85;35474;51.032;6.998;2023-05-09T04:26:19;15.30;88.45
52656;SHT85;35474;51.032;6.998;2023-05-09T04:28:47;15.36;88.37
52656;SHT85;35474;51.032;6.998;2023-05-09T04:31:14;15.31;88.57
52656;SHT85;35474;51.032;6.998;2023-05-09T04:33:41;15.45;88.38
52656;SHT85;35474;51.032;6.998;2023-05-09T04:36:07;15.43;88.29
52656;SHT85;35474;51.032;6.998;2023-05-09T04:38:34;15.55;88.28
52656;SHT85;35474;51.032;6.998;2023-05-09T04:41:01;15.35;88.48
52656;SHT85;35474;51.032;6.998;2023-05-09T04:43:27;15.31;88.94
52656;SHT85;35474;51.032;6.998;2023-05-09T04:45:55;15.41;88.40
52656;SHT85;35474;51.032;6.998;2023-05-09T04:48:21;15.32;88.80
52656;SHT85;35474;51.032;6.998;2023-05-09T04:50:48;15.25;89.17
52656;SHT85;35474;51.032;6.998;2023-05-09T04:53:15;15.28;89.11
52656;SHT85;35474;51.032;6.998;2023-05-09T04:55:41;15.21;89.19
52656;SHT85;35474;51.032;6.998;2023-05-09T04:58:08;15.07;89.77
52656;SHT85;35474;51.032;6.998;2023-05-09T05:00:35;15.00;90.02
52656;SHT85;35474;51.032;6.998;2023-05-09T05:03:01;14.98;90.40
52656;SHT85;35474;51.032;6.998;2023-05-09T05:05:28;15.11;90.31
52656;SHT85;35474;51.032;6.998;2023-05-09T05:07:55;15.12;90.41
52656;SHT85;35474;51.032;6.998;2023-05-09T05:10:22;15.14;90.17
52656;SHT85;35474;51.032;6.998;2023-05-09T05:12:48;15.20;90.14
52656;SHT85;35474;51.032;6.998;2023-05-09T05:15:15;15.14;90.17
52656;SHT85;35474;51.032;6.998;2023-05-09T05:17:44;15.18;90.14
52656;SHT85;35474;51.032;6.998;2023-05-09T05:20:11;15.28;89.90
52656;SHT85;35474;51.032;6.998;2023-05-09T05:22:37;15.31;89.95
52656;SHT85;35474;51.032;6.998;2023-05-09T05:25:04;15.35;89.80
52656;SHT85;35474;51.032;6.998;2023-05-09T05:27:31;15.36;89.66
52656;SHT85;35474;51.032;6.998;2023-05-09T05:29:58;15.42;89.50
52656;SHT85;35474;51.032;6.998;2023-05-09T05:32:24;15.49;89.34
52656;SHT85;35474;51.032;6.998;2023-05-09T05:34:51;15.48;89.28
52656;SHT85;35474;51.032;6.998;2023-05-09T05:37:18;15.51;89.20
52656;SHT85;35474;51.032;6.998;2023-05-09T05:39:44;15.69;88.70
52656;SHT85;35474;51.032;6.998;2023-05-09T05:42:11;15.56;88.83
52656;SHT85;35474;51.032;6.998;2023-05-09T05:44:37;15.62;88.63
52656;SHT85;35474;51.032;6.998;2023-05-09T05:47:04;15.73;88.47
52656;SHT85;35474;51.032;6.998;2023-05-09T05:49:31;15.74;88.30
52656;SHT85;35474;51.032;6.998;2023-05-09T05:51:57;15.82;88.25
52656;SHT85;35474;51.032;6.998;2023-05-09T05:54:24;15.79;88.34
52656;SHT85;35474;51.032;6.998;2023-05-09T05:56:51;15.85;88.06
52656;SHT85;35474;51.032;6.998;2023-05-09T05:59:17;15.85;88.13
52656;SHT85;35474;51.032;6.998;2023-05-09T06:01:44;15.99;87.97
52656;SHT85;35474;51.032;6.998;2023-05-09T06:04:11;16.06;87.61
52656;SHT85;35474;51.032;6.998;2023-05-09T06:06:37;16.17;87.23
52656;SHT85;35474;51.032;6.998;2023-05-09T06:09:04;16.03;87.66
52656;SHT85;35474;51.032;6.998;2023-05-09T06:11:30;16.13;87.70
52656;SHT85;35474;51.032;6.998;2023-05-09T06:13:57;16.09;87.72
52656;SHT85;35474;51.032;6.998;2023-05-09T06:16:24;16.20;87.62
52656;SHT85;35474;51.032;6.998;2023-05-09T06:18:51;16.16;87.26
52656;SHT85;35474;51.032;6.998;2023-05-09T06:21:21;16.17;87.49
52656;SHT85;35474;51.032;6.998;2023-05-09T06:23:47;16.18;87.55
52656;SHT85;35474;51.032;6.998;2023-05-09T06:26:33;16.27;87.44
52656;SHT85;35474;51.032;6.998;2023-05-09T06:29:00;16.40;87.12
52656;SHT85;35474;51.032;6.998;2023-05-09T06:32:34;16.52;86.74
52656;SHT85;35474;51.032;6.998;2023-05-09T06:35:01;16.58;86.19
52656;SHT85;35474;51.032;6.998;2023-05-09T06:37:31;16.58;86.48
52656;SHT85;35474;51.032;6.998;2023-05-09T06:39:58;16.72;85.99
52656;SHT85;35474;51.032;6.998;2023-05-09T06:42:25;16.71;86.06
52656;SHT85;35474;51.032;6.998;2023-05-09T06:44:52;16.85;85.47
52656;SHT85;35474;51.032;6.998;2023-05-09T06:47:18;16.85;85.21
52656;SHT85;35474;51.032;6.998;2023-05-09T06:49:45;16.88;85.32
52656;SHT85;35474;51.032;6.998;2023-05-09T06:52:12;17.07;85.04
52656;SHT85;35474;51.032;6.998;2023-05-09T06:54:40;17.14;84.36
52656;SHT85;35474;51.032;6.998;2023-05-09T06:57:07;17.43;83.79
52656;SHT85;35474;51.032;6.998;2023-05-09T06:59:34;17.57;83.03
52656;SHT85;35474;51.032;6.998;2023-05-09T07:02:00;17.36;82.75
52656;SHT85;35474;51.032;6.998;2023-05-09T07:04:27;17.65;82.89
52656;SHT85;35474;51.032;6.998;2023-05-09T07:06:54;17.55;82.43
52656;SHT85;35474;51.032;6.998;2023-05-09T07:09:20;17.69;82.20
52656;SHT85;35474;51.032;6.998;2023-05-09T07:11:48;17.83;81.65
52656;SHT85;35474;51.032;6.998;2023-05-09T07:14:15;17.55;81.80
52656;SHT85;35474;51.032;6.998;2023-05-09T07:16:42;17.51;81.78
52656;SHT85;35474;51.032;6.998;2023-05-09T07:19:08;17.55;81.58
52656;SHT85;35474;51.032;6.998;2023-05-09T07:21:35;17.77;81.11
52656;SHT85;35474;51.032;6.998;2023-05-09T07:24:02;17.88;80.88
52656;SHT85;35474;51.032;6.998;2023-05-09T07:26:29;18.17;79.62
52656;SHT85;35474;51.032;6.998;2023-05-09T07:28:55;18.05;79.40
52656;SHT85;35474;51.032;6.998;2023-05-09T07:31:22;18.09;78.81
52656;SHT85;35474;51.032;6.998;2023-05-09T07:33:48;18.04;78.90
52656;SHT85;35474;51.032;6.998;2023-05-09T07:36:15;18.46;77.62
52656;SHT85;35474;51.032;6.998;2023-05-09T07:38:42;18.36;76.85
52656;SHT85;35474;51.032;6.998;2023-05-09T07:41:08;18.67;76.72
52656;SHT85;35474;51.032;6.998;2023-05-09T07:43:35;18.54;75.53
52656;SHT85;35474;51.032;6.998;2023-05-09T07:46:02;18.50;75.69
52656;SHT85;35474;51.032;6.998;2023-05-09T07:48:28;18.75;75.65
52656;SHT85;35474;51.032;6.998;2023-05-09T07:50:55;18.58;75.86
52656;SHT85;35474;51.032;6.998;2023-05-09T07:53:21;18.89;74.84
52656;SHT85;35474;51.032;6.998;2023-05-09T07:55:48;18.88;74.85
52656;SHT85;35474;51.032;6.998;2023-05-09T07:58:15;18.68;75.65
52656;SHT85;35474;51.032;6.998;2023-05-09T08:00:42;18.88;75.03
52656;SHT85;35474;51.032;6.998;2023-05-09T08:03:09;18.94;73.45
52656;SHT85;35474;51.032;6.998;2023-05-09T08:05:35;19.08;73.60
52656;SHT85;35474;51.032;6.998;2023-05-09T08:08:02;18.66;74.95
52656;SHT85;35474;51.032;6.998;2023-05-09T08:10:29;18.57;74.56
52656;SHT85;35474;51.032;6.998;2023-05-09T08:12:57;19.31;73.03
52656;SHT85;35474;51.032;6.998;2023-05-09T08:15:23;20.24;70.06
52656;SHT85;35474;51.032;6.998;2023-05-09T08:17:50;19.87;70.15
52656;SHT85;35474;51.032;6.998;2023-05-09T08:20:17;19.60;69.17
52656;SHT85;35474;51.032;6.998;2023-05-09T08:22:43;19.59;68.26
52656;SHT85;35474;51.032;6.998;2023-05-09T08:25:10;19.29;69.51
52656;SHT85;35474;51.032;6.998;2023-05-09T08:27:39;19.19;71.46
52656;SHT85;35474;51.032;6.998;2023-05-09T08:30:06;19.50;71.01
52656;SHT85;35474;51.032;6.998;2023-05-09T08:32:33;19.36;70.80
52656;SHT85;35474;51.032;6.998;2023-05-09T08:35:00;20.05;69.87
52656;SHT85;35474;51.032;6.998;2023-05-09T08:37:27;19.32;70.18
52656;SHT85;35474;51.032;6.998;2023-05-09T08:39:54;19.52;69.75
52656;SHT85;35474;51.032;6.998;2023-05-09T08:42:21;19.56;70.09
52656;SHT85;35474;51.032;6.998;2023-05-09T08:44:51;19.74;69.50
52656;SHT85;35474;51.032;6.998;2023-05-09T08:47:18;19.77;69.98
52656;SHT85;35474;51.032;6.998;2023-05-09T08:49:46;19.53;68.88
52656;SHT85;35474;51.032;6.998;2023-05-09T08:52:14;19.52;68.37
52656;SHT85;35474;51.032;6.998;2023-05-09T08:54:41;19.74;68.60
52656;SHT85;35474;51.032;6.998;2023-05-09T08:57:08;19.91;67.74
52656;SHT85;35474;51.032;6.998;2023-05-09T08:59:35;19.90;67.15
52656;SHT85;35474;51.032;6.998;2023-05-09T09:02:05;20.04;66.36
52656;SHT85;35474;51.032;6.998;2023-05-09T09:04:33;21.67;64.02
52656;SHT85;35474;51.032;6.998;2023-05-09T09:06:59;21.07;64.19
52656;SHT85;35474;51.032;6.998;2023-05-09T09:09:31;20.86;64.44
52656;SHT85;35474;51.032;6.998;2023-05-09T09:12:01;21.88;61.84
52656;SHT85;35474;51.032;6.998;2023-05-09T09:14:31;20.52;65.32
52656;SHT85;35474;51.032;6.998;2023-05-09T09:17:03;20.59;64.63
52656;SHT85;35474;51.032;6.998;2023-05-09T09:19:31;20.84;64.05
52656;SHT85;35474;51.032;6.998;2023-05-09T09:21:59;21.34;62.16
52656;SHT85;35474;51.032;6.998;2023-05-09T09:24:29;20.89;62.33
52656;SHT85;35474;51.032;6.998;2023-05-09T09:26:57;21.04;62.64
52656;SHT85;35474;51.032;6.998;2023-05-09T09:29:31;20.89;61.21
52656;SHT85;35474;51.032;6.998;2023-05-09T09:32:02;21.23;60.19
52656;SHT85;35474;51.032;6.998;2023-05-09T09:34:32;21.42;60.21
52656;SHT85;35474;51.032;6.998;2023-05-09T09:36:59;20.82;60.16
52656;SHT85;35474;51.032;6.998;2023-05-09T09:39:25;21.42;59.36
52656;SHT85;35474;51.032;6.998;2023-05-09T09:41:52;21.71;59.71
52656;SHT85;35474;51.032;6.998;2023-05-09T09:44:19;22.35;56.78
52656;SHT85;35474;51.032;6.998;2023-05-09T09:46:47;20.93;59.55
52656;SHT85;35474;51.032;6.998;2023-05-09T09:49:17;20.94;58.95
52656;SHT85;35474;51.032;6.998;2023-05-09T09:51:49;20.73;58.95
52656;SHT85;35474;51.032;6.998;2023-05-09T09:54:17;20.63;60.62
52656;SHT85;35474;51.032;6.998;2023-05-09T09:56:45;20.28;60.28
52656;SHT85;35474;51.032;6.998;2023-05-09T09:59:17;20.44;59.52
52656;SHT85;35474;51.032;6.998;2023-05-09T10:01:59;20.65;58.62
52656;SHT85;35474;51.032;6.998;2023-05-09T10:04:34;20.46;59.37
52656;SHT85;35474;51.032;6.998;2023-05-09T10:07:03;20.48;59.73
52656;SHT85;35474;51.032;6.998;2023-05-09T10:09:32;21.02;58.09
52656;SHT85;35474;51.032;6.998;2023-05-09T10:12:03;21.67;57.00
52656;SHT85;35474;51.032;6.998;2023-05-09T10:14:32;21.57;56.54
52656;SHT85;35474;51.032;6.998;2023-05-09T10:17:01;21.23;57.18
52656;SHT85;35474;51.032;6.998;2023-05-09T10:19:30;21.23;58.40
52656;SHT85;35474;51.032;6.998;2023-05-09T10:21:58;21.11;57.58
52656;SHT85;35474;51.032;6.998;2023-05-09T10:27:27;21.24;57.35
52656;SHT85;35474;51.032;6.998;2023-05-09T10:30:05;21.26;56.62
52656;SHT85;35474;51.032;6.998;2023-05-09T10:35:21;20.55;57.99
52656;SHT85;35474;51.032;6.998;2023-05-09T10:37:51;20.79;57.93
52656;SHT85;35474;51.032;6.998;2023-05-09T10:40:22;20.77;58.37
52656;SHT85;35474;51.032;6.998;2023-05-09T10:42:49;20.71;58.81
52656;SHT85;35474;51.032;6.998;2023-05-09T10:45:16;20.80;58.77
52656;SHT85;35474;51.032;6.998;2023-05-09T10:47:43;20.69;60.96
52656;SHT85;35474;51.032;6.998;2023-05-09T10:50:11;20.97;61.66
52656;SHT85;35474;51.032;6.998;2023-05-09T10:58:19;20.99;62.04
52656;SHT85;35474;51.032;6.998;2023-05-09T11:00:49;20.87;62.19
52656;SHT85;35474;51.032;6.998;2023-05-09T11:03:16;20.38;63.43
52656;SHT85;35474;51.032;6.998;2023-05-09T11:05:47;20.68;62.77
52656;SHT85;35474;51.032;6.998;2023-05-09T11:08:19;20.96;61.81
52656;SHT85;35474;51.032;6.998;2023-05-09T11:10:56;21.11;61.52
52656;SHT85;35474;51.032;6.998;2023-05-09T11:13:29;20.80;60.88
52656;SHT85;35474;51.032;6.998;2023-05-09T11:18:27;20.55;60.14
52656;SHT85;35474;51.032;6.998;2023-05-09T11:20:54;20.82;60.74
52656;SHT85;35474;51.032;6.998;2023-05-09T11:23:24;20.86;60.33
52656;SHT85;35474;51.032;6.998;2023-05-09T11:25:51;20.90;59.83
52656;SHT85;35474;51.032;6.998;2023-05-09T11:31:14;21.14;59.01
52656;SHT85;35474;51.032;6.998;2023-05-09T11:33:45;21.78;58.30
52656;SHT85;35474;51.032;6.998;2023-05-09T11:39:06;21.71;58.92
52656;SHT85;35474;51.032;6.998;2023-05-09T11:41:52;21.45;59.05
52656;SHT85;35474;51.032;6.998;2023-05-09T11:44:19;21.28;58.97
52656;SHT85;35474;51.032;6.998;2023-05-09T11:46:47;21.24;58.71
52656;SHT85;35474;51.032;6.998;2023-05-09T11:49:14;21.10;58.75
52656;SHT85;35474;51.032;6.998;2023-05-09T11:51:42;21.26;59.40
52656;SHT85;35474;51.032;6.998;2023-05-09T11:54:09;21.28;59.58
52656;SHT85;35474;51.032;6.998;2023-05-09T11:56:37;21.34;59.28
52656;SHT85;35474;51.032;6.998;2023-05-09T11:59:06;21.61;58.72
52656;SHT85;35474;51.032;6.998;2023-05-09T12:01:34;21.83;57.74
52656;SHT85;35474;51.032;6.998;2023-05-09T12:04:02;22.25;57.98
52656;SHT85;35474;51.032;6.998;2023-05-09T12:06:31;22.16;57.05
52656;SHT85;35474;51.032;6.998;2023-05-09T12:08:59;21.61;58.26
52656;SHT85;35474;51.032;6.998;2023-05-09T12:11:29;21.67;57.95
52656;SHT85;35474;51.032;6.998;2023-05-09T12:13:58;21.54;58.26
52656;SHT85;35474;51.032;6.998;2023-05-09T12:16:27;21.30;58.43
52656;SHT85;35474;51.032;6.998;2023-05-09T12:18:53;21.62;58.57
52656;SHT85;35474;51.032;6.998;2023-05-09T12:21:20;21.79;58.40
52656;SHT85;35474;51.032;6.998;2023-05-09T12:23:47;21.88;57.62
52656;SHT85;35474;51.032;6.998;2023-05-09T12:26:17;21.85;58.46
52656;SHT85;35474;51.032;6.998;2023-05-09T12:28:44;21.81;58.33
52656;SHT85;35474;51.032;6.998;2023-05-09T12:31:11;21.67;58.29
52656;SHT85;35474;51.032;6.998;2023-05-09T12:33:38;21.34;59.36
52656;SHT85;35474;51.032;6.998;2023-05-09T12:36:10;21.77;59.11
52656;SHT85;35474;51.032;6.998;2023-05-09T12:38:38;21.78;58.18
52656;SHT85;35474;51.032;6.998;2023-05-09T12:41:05;21.98;58.58
52656;SHT85;35474;51.032;6.998;2023-05-09T12:43:47;21.67;58.38
52656;SHT85;35474;51.032;6.998;2023-05-09T12:46:18;21.40;59.19
52656;SHT85;35474;51.032;6.998;2023-05-09T12:48:46;21.34;59.42
52656;SHT85;35474;51.032;6.998;2023-05-09T12:51:18;21.48;59.88
52656;SHT85;35474;51.032;6.998;2023-05-09T12:53:46;21.48;59.19
52656;SHT85;35474;51.032;6.998;2023-05-09T12:58:49;20.38;64.40
52656;SHT85;35474;51.032;6.998;2023-05-09T13:01:17;20.29;64.51
52656;SHT85;35474;51.032;6.998;2023-05-09T13:04:01;20.45;64.50
52656;SHT85;35474;51.032;6.998;2023-05-09T13:06:29;20.76;64.80
52656;SHT85;35474;51.032;6.998;2023-05-09T13:09:02;20.86;64.88
52656;SHT85;35474;51.032;6.998;2023-05-09T13:11:31;21.06;64.51
52656;SHT85;35474;51.032;6.998;2023-05-09T13:13:57;21.24;64.22
52656;SHT85;35474;51.032;6.998;2023-05-09T13:16:25;21.11;64.01
52656;SHT85;35474;51.032;6.998;2023-05-09T13:18:52;21.19;64.06
52656;SHT85;35474;51.032;6.998;2023-05-09T13:21:18;21.34;63.26
52656;SHT85;35474;51.032;6.998;2023-05-09T13:23:46;21.35;64.20
52656;SHT85;35474;51.032;6.998;2023-05-09T13:26:15;21.28;61.91
52656;SHT85;35474;51.032;6.998;2023-05-09T13:28:41;21.61;62.61
52656;SHT85;35474;51.032;6.998;2023-05-09T13:31:08;21.64;62.33
52656;SHT85;35474;51.032;6.998;2023-05-09T13:33:35;21.60;61.39
52656;SHT85;35474;51.032;6.998;2023-05-09T13:36:02;21.72;60.98
52656;SHT85;35474;51.032;6.998;2023-05-09T13:38:29;21.79;60.00
52656;SHT85;35474;51.032;6.998;2023-05-09T13:40:57;21.57;59.72
52656;SHT85;35474;51.032;6.998;2023-05-09T13:43:24;21.67;59.31
52656;SHT85;35474;51.032;6.998;2023-05-09T13:45:51;21.58;59.69
52656;SHT85;35474;51.032;6.998;2023-05-09T13:48:17;21.51;59.88
52656;SHT85;35474;51.032;6.998;2023-05-09T13:50:44;21.37;59.57
52656;SHT85;35474;51.032;6.998;2023-05-09T13:53:12;21.27;60.01
52656;SHT85;35474;51.032;6.998;2023-05-09T13:55:38;21.57;59.79
52656;SHT85;35474;51.032;6.998;2023-05-09T13:58:05;21.57;59.03
52656;SHT85;35474;51.032;6.998;2023-05-09T14:00:32;21.42;58.28
52656;SHT85;35474;51.032;6.998;2023-05-09T14:03:00;21.42;58.35
52656;SHT85;35474;51.032;6.998;2023-05-09T14:05:27;21.67;58.72
52656;SHT85;35474;51.032;6.998;2023-05-09T14:07:54;21.50;58.60
52656;SHT85;35474;51.032;6.998;2023-05-09T14:10:20;21.41;58.77
52656;SHT85;35474;51.032;6.998;2023-05-09T14:12:47;21.27;58.56
52656;SHT85;35474;51.032;6.998;2023-05-09T14:15:14;21.28;58.74
52656;SHT85;35474;51.032;6.998;2023-05-09T14:17:41;21.24;58.62
52656;SHT85;35474;51.032;6.998;2023-05-09T14:20:09;21.21;59.62
52656;SHT85;35474;51.032;6.998;2023-05-09T14:22:36;21.37;59.48
52656;SHT85;35474;51.032;6.998;2023-05-09T14:25:02;21.37;59.37
52656;SHT85;35474;51.032;6.998;2023-05-09T14:27:29;20.52;67.64
52656;SHT85;35474;51.032;6.998;2023-05-09T14:29:56;20.01;71.79
52656;SHT85;35474;51.032;6.998;2023-05-09T14:32:22;19.28;75.34
52656;SHT85;35474;51.032;6.998;2023-05-09T14:34:50;18.91;77.69
52656;SHT85;35474;51.032;6.998;2023-05-09T14:37:17;18.41;80.07
52656;SHT85;35474;51.032;6.998;2023-05-09T14:39:43;18.46;80.61
52656;SHT85;35474;51.032;6.998;2023-05-09T14:42:10;18.20;81.29
52656;SHT85;35474;51.032;6.998;2023-05-09T14:44:39;17.89;82.78
52656;SHT85;35474;51.032;6.998;2023-05-09T14:47:07;17.69;85.40
52656;SHT85;35474;51.032;6.998;2023-05-09T14:49:35;17.23;88.40
52656;SHT85;35474;51.032;6.998;2023-05-09T14:52:04;17.03;88.71
52656;SHT85;35474;51.032;6.998;2023-05-09T14:54:31;16.86;89.03
52656;SHT85;35474;51.032;6.998;2023-05-09T14:56:58;16.82;88.56
52656;SHT85;35474;51.032;6.998;2023-05-09T14:59:27;16.80;88.08
52656;SHT85;35474;51.032;6.998;2023-05-09T15:01:53;16.90;89.12
52656;SHT85;35474;51.032;6.998;2023-05-09T15:04:20;16.85;88.07
52656;SHT85;35474;51.032;6.998;2023-05-09T15:06:48;16.96;88.81
52656;SHT85;35474;51.032;6.998;2023-05-09T15:09:14;16.96;89.70
52656;SHT85;35474;51.032;6.998;2023-05-09T15:11:41;16.92;89.12
52656;SHT85;35474;51.032;6.998;2023-05-09T15:14:14;16.98;89.45
52656;SHT85;35474;51.032;6.998;2023-05-09T15:16:46;16.99;89.94
52656;SHT85;35474;51.032;6.998;2023-05-09T15:19:13;16.79;89.72
52656;SHT85;35474;51.032;6.998;2023-05-09T15:21:40;16.82;89.72
52656;SHT85;35474;51.032;6.998;2023-05-09T15:24:07;16.92;90.68
52656;SHT85;35474;51.032;6.998;2023-05-09T15:26:33;17.00;90.88
52656;SHT85;35474;51.032;6.998;2023-05-09T15:29:00;17.07;90.74
52656;SHT85;35474;51.032;6.998;2023-05-09T15:31:30;16.93;90.25
52656;SHT85;35474;51.032;6.998;2023-05-09T15:33:58;16.89;90.68
52656;SHT85;35474;51.032;6.998;2023-05-09T15:36:27;17.07;91.39
52656;SHT85;35474;51.032;6.998;2023-05-09T15:38:55;17.14;90.90
52656;SHT85;35474;51.032;6.998;2023-05-09T15:41:21;17.04;90.73
52656;SHT85;35474;51.032;6.998;2023-05-09T15:43:48;17.07;90.69
52656;SHT85;35474;51.032;6.998;2023-05-09T15:46:15;17.10;90.82
52656;SHT85;35474;51.032;6.998;2023-05-09T15:48:42;17.24;91.15
52656;SHT85;35474;51.032;6.998;2023-05-09T15:51:08;17.37;91.88
52656;SHT85;35474;51.032;6.998;2023-05-09T15:53:35;17.40;91.58
52656;SHT85;35474;51.032;6.998;2023-05-09T15:56:01;17.36;91.41
52656;SHT85;35474;51.032;6.998;2023-05-09T15:58:29;17.33;91.28
52656;SHT85;35474;51.032;6.998;2023-05-09T16:00:55;17.44;91.49
52656;SHT85;35474;51.032;6.998;2023-05-09T16:03:23;17.37;90.86
52656;SHT85;35474;51.032;6.998;2023-05-09T16:05:50;17.34;90.83
52656;SHT85;35474;51.032;6.998;2023-05-09T16:08:18;17.41;91.08
52656;SHT85;35474;51.032;6.998;2023-05-09T16:10:44;17.43;90.72
52656;SHT85;35474;51.032;6.998;2023-05-09T16:13:14;17.46;90.84